sensor_id;sensor_type;location;lat;lon;timestamp;pressure;altitude;pressure_sealevel;temperature;humidity
64253;BME280;50592;52.958;-7.470;2022-08-19T00:00:27;100034.91;;;13.47;78.41
64253;BME280;50592;52.958;-7.470;2022-08-19T00:02:53;100024.47;;;13.45;78.68
64253;BME280;50592;52.958;-7.470;2022-08-19T00:05:20;100030.59;;;13.46;78.68
64253;BME280;50592;52.958;-7.470;2022-08-19T00:07:47;100033.59;;;13.43;79.07
64253;BME280;50592;52.958;-7.470;2022-08-19T00:10:16;100035.59;;;13.40;79.71
64253;BME280;50592;52.958;-7.470;2022-08-19T00:12:42;100029.97;;;13.35;79.95
64253;BME280;50592;52.958;-7.470;2022-08-19T00:15:10;100037.59;;;13.38;79.77
64253;BME280;50592;52.958;-7.470;2022-08-19T00:17:42;100039.25;;;13.39;80.14
64253;BME280;50592;52.958;-7.470;2022-08-19T00:20:10;100030.28;;;13.40;80.41
64253;BME280;50592;52.958;-7.470;2022-08-19T00:22:37;100028.63;;;13.39;80.18
64253;BME280;50592;52.958;-7.470;2022-08-19T00:25:04;100038.09;;;13.42;80.33
64253;BME280;50592;52.958;-7.470;2022-08-19T00:27:30;100039.06;;;13.41;80.64
64253;BME280;50592;52.958;-7.470;2022-08-19T00:29:56;100038.78;;;13.36;80.86
64253;BME280;50592;52.958;-7.470;2022-08-19T00:32:21;100027.50;;;13.34;80.98
64253;BME280;50592;52.958;-7.470;2022-08-19T00:34:47;100037.44;;;13.32;80.98
64253;BME280;50592;52.958;-7.470;2022-08-19T00:37:13;100042.66;;;13.25;81.16
64253;BME280;50592;52.958;-7.470;2022-08-19T00:39:39;100048.13;;;13.23;81.40
64253;BME280;50592;52.958;-7.470;2022-08-19T00:42:04;100043.16;;;13.20;81.37
64253;BME280;50592;52.958;-7.470;2022-08-19T00:44:31;100043.78;;;13.22;81.42
64253;BME280;50592;52.958;-7.470;2022-08-19T00:46:58;100054.41;;;13.22;81.36
64253;BME280;50592;52.958;-7.470;2022-08-19T00:49:29;100058.75;;;13.23;81.66
64253;BME280;50592;52.958;-7.470;2022-08-19T00:52:12;100055.91;;;13.25;81.74
64253;BME280;50592;52.958;-7.470;2022-08-19T00:54:40;100057.56;;;13.26;81.93
64253;BME280;50592;52.958;-7.470;2022-08-19T00:57:09;100063.19;;;13.31;81.84
64253;BME280;50592;52.958;-7.470;2022-08-19T00:59:39;100063.66;;;13.35;81.97
64253;BME280;50592;52.958;-7.470;2022-08-19T01:02:06;100064.81;;;13.40;81.90
64253;BME280;50592;52.958;-7.470;2022-08-19T01:04:32;100070.13;;;13.40;81.94
64253;BME280;50592;52.958;-7.470;2022-08-19T01:06:58;100063.63;;;13.43;81.72
64253;BME280;50592;52.958;-7.470;2022-08-19T01:09:25;100064.13;;;13.47;81.91
64253;BME280;50592;52.958;-7.470;2022-08-19T01:11:51;100067.44;;;13.49;81.64
64253;BME280;50592;52.958;-7.470;2022-08-19T01:14:17;100069.44;;;13.47;81.68
64253;BME280;50592;52.958;-7.470;2022-08-19T01:16:45;100063.09;;;13.48;81.63
64253;BME280;50592;52.958;-7.470;2022-08-19T01:19:27;100063.28;;;13.46;81.50
64253;BME280;50592;52.958;-7.470;2022-08-19T01:22:03;100057.66;;;13.41;81.55
64253;BME280;50592;52.958;-7.470;2022-08-19T01:24:29;100058.84;;;13.38;82.00
64253;BME280;50592;52.958;-7.470;2022-08-19T01:26:56;100063.13;;;13.39;81.83
64253;BME280;50592;52.958;-7.470;2022-08-19T01:29:21;100056.19;;;13.38;81.79
64253;BME280;50592;52.958;-7.470;2022-08-19T01:31:47;100059.19;;;13.35;81.80
64253;BME280;50592;52.958;-7.470;2022-08-19T01:34:14;100059.34;;;13.34;82.02
64253;BME280;50592;52.958;-7.470;2022-08-19T01:36:42;100060.38;;;13.33;81.91
64253;BME280;50592;52.958;-7.470;2022-08-19T01:39:24;100064.16;;;13.30;82.30
64253;BME280;50592;52.958;-7.470;2022-08-19T01:41:50;100064.16;;;13.30;81.79
64253;BME280;50592;52.958;-7.470;2022-08-19T01:44:20;100069.00;;;13.26;81.96
64253;BME280;50592;52.958;-7.470;2022-08-19T01:46:50;100065.88;;;13.23;81.86
64253;BME280;50592;52.958;-7.470;2022-08-19T01:49:19;100074.50;;;13.17;81.96
64253;BME280;50592;52.958;-7.470;2022-08-19T01:51:45;100072.03;;;13.07;81.84
64253;BME280;50592;52.958;-7.470;2022-08-19T01:54:14;100073.91;;;12.98;82.06
64253;BME280;50592;52.958;-7.470;2022-08-19T01:56:41;100070.09;;;12.84;82.63
64253;BME280;50592;52.958;-7.470;2022-08-19T01:59:10;100075.56;;;12.82;82.81
64253;BME280;50592;52.958;-7.470;2022-08-19T02:01:37;100076.91;;;12.78;82.76
64253;BME280;50592;52.958;-7.470;2022-08-19T02:04:03;100072.44;;;12.78;82.94
64253;BME280;50592;52.958;-7.470;2022-08-19T02:06:30;100072.44;;;12.78;82.99
64253;BME280;50592;52.958;-7.470;2022-08-19T02:08:56;100074.94;;;12.80;83.01
64253;BME280;50592;52.958;-7.470;2022-08-19T02:11:26;100067.16;;;12.78;83.13
64253;BME280;50592;52.958;-7.470;2022-08-19T02:13:53;100065.28;;;12.79;83.41
64253;BME280;50592;52.958;-7.470;2022-08-19T02:16:19;100068.63;;;12.81;83.26
64253;BME280;50592;52.958;-7.470;2022-08-19T02:18:46;100056.03;;;12.83;83.04
64253;BME280;50592;52.958;-7.470;2022-08-19T02:21:15;100072.56;;;12.85;82.91
64253;BME280;50592;52.958;-7.470;2022-08-19T02:23:41;100075.22;;;12.85;82.77
64253;BME280;50592;52.958;-7.470;2022-08-19T02:26:07;100069.75;;;12.87;82.82
64253;BME280;50592;52.958;-7.470;2022-08-19T02:28:34;100071.25;;;12.89;82.76
64253;BME280;50592;52.958;-7.470;2022-08-19T02:31:00;100079.06;;;12.91;82.63
64253;BME280;50592;52.958;-7.470;2022-08-19T02:33:28;100068.63;;;12.89;82.83
64253;BME280;50592;52.958;-7.470;2022-08-19T02:35:54;100068.94;;;12.86;83.24
64253;BME280;50592;52.958;-7.470;2022-08-19T02:38:20;100070.09;;;12.84;83.28
64253;BME280;50592;52.958;-7.470;2022-08-19T02:41:05;100071.28;;;12.81;83.34
64253;BME280;50592;52.958;-7.470;2022-08-19T02:43:32;100069.78;;;12.78;83.52
64253;BME280;50592;52.958;-7.470;2022-08-19T02:45:57;100070.63;;;12.71;83.46
64253;BME280;50592;52.958;-7.470;2022-08-19T02:48:25;100065.00;;;12.65;83.83
64253;BME280;50592;52.958;-7.470;2022-08-19T02:50:52;100075.78;;;12.64;83.81
64253;BME280;50592;52.958;-7.470;2022-08-19T02:53:26;100078.94;;;12.59;83.80
64253;BME280;50592;52.958;-7.470;2022-08-19T02:55:52;100089.88;;;12.56;84.39
64253;BME280;50592;52.958;-7.470;2022-08-19T02:58:20;100089.03;;;12.56;84.34
64253;BME280;50592;52.958;-7.470;2022-08-19T03:00:52;100088.03;;;12.57;84.01
64253;BME280;50592;52.958;-7.470;2022-08-19T03:03:18;100085.38;;;12.57;84.45
64253;BME280;50592;52.958;-7.470;2022-08-19T03:05:45;100090.66;;;12.57;84.28
64253;BME280;50592;52.958;-7.470;2022-08-19T03:08:12;100080.75;;;12.59;84.42
64253;BME280;50592;52.958;-7.470;2022-08-19T03:10:43;100085.03;;;12.60;84.11
64253;BME280;50592;52.958;-7.470;2022-08-19T03:13:14;100084.22;;;12.59;84.58
64253;BME280;50592;52.958;-7.470;2022-08-19T03:15:46;100081.06;;;12.56;84.26
64253;BME280;50592;52.958;-7.470;2022-08-19T03:18:13;100079.75;;;12.51;84.22
64253;BME280;50592;52.958;-7.470;2022-08-19T03:20:43;100081.75;;;12.49;84.09
64253;BME280;50592;52.958;-7.470;2022-08-19T03:23:10;100070.97;;;12.43;84.35
64253;BME280;50592;52.958;-7.470;2022-08-19T03:25:39;100081.44;;;12.36;84.09
64253;BME280;50592;52.958;-7.470;2022-08-19T03:28:07;100074.28;;;12.28;84.71
64253;BME280;50592;52.958;-7.470;2022-08-19T03:30:33;100074.75;;;12.23;84.73
64253;BME280;50592;52.958;-7.470;2022-08-19T03:32:59;100086.03;;;12.17;85.10
64253;BME280;50592;52.958;-7.470;2022-08-19T03:35:25;100080.88;;;12.15;85.36
64253;BME280;50592;52.958;-7.470;2022-08-19T03:37:51;100079.75;;;12.18;85.48
64253;BME280;50592;52.958;-7.470;2022-08-19T03:40:18;100080.41;;;12.20;85.85
64253;BME280;50592;52.958;-7.470;2022-08-19T03:42:44;100078.25;;;12.24;86.07
64253;BME280;50592;52.958;-7.470;2022-08-19T03:45:11;100072.47;;;12.28;86.49
64253;BME280;50592;52.958;-7.470;2022-08-19T03:47:37;100075.63;;;12.32;86.37
64253;BME280;50592;52.958;-7.470;2022-08-19T03:50:04;100082.06;;;12.38;86.48
64253;BME280;50592;52.958;-7.470;2022-08-19T03:52:30;100078.28;;;12.40;86.91
64253;BME280;50592;52.958;-7.470;2022-08-19T03:54:55;100083.88;;;12.46;86.97
64253;BME280;50592;52.958;-7.470;2022-08-19T03:57:21;100090.53;;;12.50;87.35
64253;BME280;50592;52.958;-7.470;2022-08-19T03:59:47;100087.22;;;12.56;87.07
64253;BME280;50592;52.958;-7.470;2022-08-19T04:02:13;100085.19;;;12.58;87.13
64253;BME280;50592;52.958;-7.470;2022-08-19T04:04:42;100083.56;;;12.57;86.89
64253;BME280;50592;52.958;-7.470;2022-08-19T04:07:10;100085.38;;;12.57;87.46
64253;BME280;50592;52.958;-7.470;2022-08-19T04:09:36;100082.06;;;12.55;87.30
64253;BME280;50592;52.958;-7.470;2022-08-19T04:12:03;100079.59;;;12.53;87.47
64253;BME280;50592;52.958;-7.470;2022-08-19T04:14:32;100084.91;;;12.53;87.72
64253;BME280;50592;52.958;-7.470;2022-08-19T04:17:00;100094.81;;;12.51;87.81
64253;BME280;50592;52.958;-7.470;2022-08-19T04:19:26;100094.81;;;12.51;88.27
64253;BME280;50592;52.958;-7.470;2022-08-19T04:21:53;100101.59;;;12.53;88.65
64253;BME280;50592;52.958;-7.470;2022-08-19T04:24:20;100091.69;;;12.56;88.75
64253;BME280;50592;52.958;-7.470;2022-08-19T04:26:47;100098.63;;;12.57;89.01
64253;BME280;50592;52.958;-7.470;2022-08-19T04:29:19;100097.81;;;12.56;89.24
64253;BME280;50592;52.958;-7.470;2022-08-19T04:31:48;100091.50;;;12.57;89.64
64253;BME280;50592;52.958;-7.470;2022-08-19T04:34:17;100093.66;;;12.62;89.79
64253;BME280;50592;52.958;-7.470;2022-08-19T04:36:44;100089.19;;;12.62;89.53
64253;BME280;50592;52.958;-7.470;2022-08-19T04:39:15;100084.88;;;12.61;89.56
64253;BME280;50592;52.958;-7.470;2022-08-19T04:41:42;100088.19;;;12.63;89.79
64253;BME280;50592;52.958;-7.470;2022-08-19T04:44:27;100080.06;;;12.65;90.03
64253;BME280;50592;52.958;-7.470;2022-08-19T04:46:56;100080.75;;;12.67;90.16
64253;BME280;50592;52.958;-7.470;2022-08-19T04:49:23;100077.09;;;12.68;89.98
64253;BME280;50592;52.958;-7.470;2022-08-19T04:51:52;100079.72;;;12.68;90.43
64253;BME280;50592;52.958;-7.470;2022-08-19T04:54:20;100084.56;;;12.64;90.12
64253;BME280;50592;52.958;-7.470;2022-08-19T04:56:52;100081.06;;;12.64;90.22
64253;BME280;50592;52.958;-7.470;2022-08-19T04:59:18;100090.69;;;12.65;90.80
64253;BME280;50592;52.958;-7.470;2022-08-19T05:01:46;100091.50;;;12.65;90.56
64253;BME280;50592;52.958;-7.470;2022-08-19T05:04:16;100089.38;;;12.61;90.66
64253;BME280;50592;52.958;-7.470;2022-08-19T05:06:43;100094.50;;;12.62;90.83
64253;BME280;50592;52.958;-7.470;2022-08-19T05:09:08;100092.53;;;12.64;90.66
64253;BME280;50592;52.958;-7.470;2022-08-19T05:11:36;100098.47;;;12.67;90.60
64253;BME280;50592;52.958;-7.470;2022-08-19T05:14:05;100099.63;;;12.64;90.40
64253;BME280;50592;52.958;-7.470;2022-08-19T05:16:31;100107.75;;;12.62;90.58
64253;BME280;50592;52.958;-7.470;2022-08-19T05:18:57;100111.06;;;12.56;90.66
64253;BME280;50592;52.958;-7.470;2022-08-19T05:21:42;100102.63;;;12.52;91.03
64253;BME280;50592;52.958;-7.470;2022-08-19T05:24:27;100096.16;;;12.47;91.14
64253;BME280;50592;52.958;-7.470;2022-08-19T05:26:54;100110.22;;;12.47;91.18
64253;BME280;50592;52.958;-7.470;2022-08-19T05:29:23;100105.75;;;12.48;91.39
64253;BME280;50592;52.958;-7.470;2022-08-19T05:31:50;100107.56;;;12.47;90.92
64253;BME280;50592;52.958;-7.470;2022-08-19T05:34:17;100112.88;;;12.47;91.10
64253;BME280;50592;52.958;-7.470;2022-08-19T05:36:44;100110.22;;;12.47;90.71
64253;BME280;50592;52.958;-7.470;2022-08-19T05:39:13;100110.38;;;12.46;91.11
64253;BME280;50592;52.958;-7.470;2022-08-19T05:41:43;100109.25;;;12.40;90.77
64253;BME280;50592;52.958;-7.470;2022-08-19T05:44:09;100115.53;;;12.39;91.06
64253;BME280;50592;52.958;-7.470;2022-08-19T05:46:36;100119.34;;;12.36;90.89
64253;BME280;50592;52.958;-7.470;2022-08-19T05:49:06;100110.56;;;12.36;90.65
64253;BME280;50592;52.958;-7.470;2022-08-19T05:51:33;100112.72;;;12.32;91.25
64253;BME280;50592;52.958;-7.470;2022-08-19T05:54:01;100110.88;;;12.33;91.18
64253;BME280;50592;52.958;-7.470;2022-08-19T05:56:27;100120.50;;;12.34;91.00
64253;BME280;50592;52.958;-7.470;2022-08-19T05:58:53;100122.31;;;12.33;90.91
64253;BME280;50592;52.958;-7.470;2022-08-19T06:01:20;100130.78;;;12.37;90.91
64253;BME280;50592;52.958;-7.470;2022-08-19T06:03:46;100123.81;;;12.36;90.71
64253;BME280;50592;52.958;-7.470;2022-08-19T06:06:15;100128.13;;;12.45;90.71
64253;BME280;50592;52.958;-7.470;2022-08-19T06:08:41;100125.31;;;12.47;90.68
64253;BME280;50592;52.958;-7.470;2022-08-19T06:11:32;100124.47;;;12.46;89.92
64253;BME280;50592;52.958;-7.470;2022-08-19T06:14:01;100126.81;;;12.49;90.35
64253;BME280;50592;52.958;-7.470;2022-08-19T06:16:28;100124.81;;;12.51;90.63
64253;BME280;50592;52.958;-7.470;2022-08-19T06:18:59;100131.28;;;12.57;89.95
64253;BME280;50592;52.958;-7.470;2022-08-19T06:21:27;100133.75;;;12.59;90.26
64253;BME280;50592;52.958;-7.470;2022-08-19T06:23:55;100139.25;;;12.65;89.95
64253;BME280;50592;52.958;-7.470;2022-08-19T06:26:22;100146.03;;;12.68;90.07
64253;BME280;50592;52.958;-7.470;2022-08-19T06:28:49;100137.75;;;12.71;89.65
64253;BME280;50592;52.958;-7.470;2022-08-19T06:31:29;100137.25;;;12.76;89.42
64253;BME280;50592;52.958;-7.470;2022-08-19T06:33:56;100141.56;;;12.77;89.67
64253;BME280;50592;52.958;-7.470;2022-08-19T06:36:35;100138.25;;;12.83;89.38
64253;BME280;50592;52.958;-7.470;2022-08-19T06:39:07;100139.72;;;12.86;89.66
64253;BME280;50592;52.958;-7.470;2022-08-19T06:41:38;100144.19;;;12.85;89.35
64253;BME280;50592;52.958;-7.470;2022-08-19T06:44:05;100137.91;;;12.86;89.59
64253;BME280;50592;52.958;-7.470;2022-08-19T06:46:31;100138.72;;;12.87;89.94
64253;BME280;50592;52.958;-7.470;2022-08-19T06:48:57;100142.03;;;12.89;89.89
64253;BME280;50592;52.958;-7.470;2022-08-19T06:51:24;100146.84;;;12.94;89.60
64253;BME280;50592;52.958;-7.470;2022-08-19T06:53:51;100144.69;;;12.97;89.94
64253;BME280;50592;52.958;-7.470;2022-08-19T06:56:20;100144.03;;;13.03;89.83
64253;BME280;50592;52.958;-7.470;2022-08-19T06:58:47;100148.81;;;13.08;89.87
64253;BME280;50592;52.958;-7.470;2022-08-19T07:01:17;100153.63;;;13.13;89.99
64253;BME280;50592;52.958;-7.470;2022-08-19T07:03:42;100145.66;;;13.21;90.22
64253;BME280;50592;52.958;-7.470;2022-08-19T07:06:14;100158.88;;;13.38;90.55
64253;BME280;50592;52.958;-7.470;2022-08-19T07:08:44;100153.88;;;13.43;89.86
64253;BME280;50592;52.958;-7.470;2022-08-19T07:11:12;100157.03;;;13.47;90.11
64253;BME280;50592;52.958;-7.470;2022-08-19T07:13:39;100163.31;;;13.46;89.63
64253;BME280;50592;52.958;-7.470;2022-08-19T07:16:11;100173.94;;;13.46;89.45
64253;BME280;50592;52.958;-7.470;2022-08-19T07:18:37;100164.50;;;13.43;89.28
64253;BME280;50592;52.958;-7.470;2022-08-19T07:21:06;100176.78;;;13.44;89.14
64253;BME280;50592;52.958;-7.470;2022-08-19T07:23:32;100178.78;;;13.42;89.14
64253;BME280;50592;52.958;-7.470;2022-08-19T07:26:04;100176.13;;;13.42;89.18
64253;BME280;50592;52.958;-7.470;2022-08-19T07:28:30;100175.63;;;13.38;89.09
64253;BME280;50592;52.958;-7.470;2022-08-19T07:30:56;100182.09;;;13.44;89.28
64253;BME280;50592;52.958;-7.470;2022-08-19T07:33:21;100181.09;;;13.45;89.03
64253;BME280;50592;52.958;-7.470;2022-08-19T07:35:47;100184.94;;;13.51;89.05
64253;BME280;50592;52.958;-7.470;2022-08-19T07:38:15;100189.56;;;13.57;88.98
64253;BME280;50592;52.958;-7.470;2022-08-19T07:40:42;100184.75;;;13.61;88.52
64253;BME280;50592;52.958;-7.470;2022-08-19T07:43:09;100199.31;;;13.65;88.72
64253;BME280;50592;52.958;-7.470;2022-08-19T07:45:34;100204.63;;;13.65;88.86
64253;BME280;50592;52.958;-7.470;2022-08-19T07:48:00;100201.16;;;13.64;88.54
64253;BME280;50592;52.958;-7.470;2022-08-19T07:50:26;100202.81;;;13.66;88.72
64253;BME280;50592;52.958;-7.470;2022-08-19T07:52:52;100192.84;;;13.68;88.74
64253;BME280;50592;52.958;-7.470;2022-08-19T07:55:25;100196.78;;;13.80;88.63
64253;BME280;50592;52.958;-7.470;2022-08-19T07:57:51;100192.91;;;13.99;88.75
64253;BME280;50592;52.958;-7.470;2022-08-19T08:00:18;100196.13;;;14.18;88.35
64253;BME280;50592;52.958;-7.470;2022-08-19T08:02:44;100194.31;;;14.19;87.31
64253;BME280;50592;52.958;-7.470;2022-08-19T08:05:10;100196.97;;;14.19;87.19
64253;BME280;50592;52.958;-7.470;2022-08-19T08:07:54;100195.25;;;14.26;87.18
64253;BME280;50592;52.958;-7.470;2022-08-19T08:10:39;100197.03;;;14.34;87.05
64253;BME280;50592;52.958;-7.470;2022-08-19T08:13:05;100198.97;;;14.40;86.42
64253;BME280;50592;52.958;-7.470;2022-08-19T08:15:31;100206.22;;;14.55;86.22
64253;BME280;50592;52.958;-7.470;2022-08-19T08:17:57;100200.53;;;14.58;85.59
64253;BME280;50592;52.958;-7.470;2022-08-19T08:20:23;100203.19;;;14.58;85.23
64253;BME280;50592;52.958;-7.470;2022-08-19T08:22:49;100200.19;;;14.61;85.28
64253;BME280;50592;52.958;-7.470;2022-08-19T08:25:34;100201.31;;;14.67;84.53
64253;BME280;50592;52.958;-7.470;2022-08-19T08:28:01;100197.47;;;14.69;84.22
64253;BME280;50592;52.958;-7.470;2022-08-19T08:30:29;100202.63;;;14.71;83.94
64253;BME280;50592;52.958;-7.470;2022-08-19T08:32:55;100204.16;;;14.65;83.48
64253;BME280;50592;52.958;-7.470;2022-08-19T08:35:23;100198.47;;;14.68;83.65
64253;BME280;50592;52.958;-7.470;2022-08-19T08:37:51;100203.09;;;14.74;83.79
64253;BME280;50592;52.958;-7.470;2022-08-19T08:43:27;100204.13;;;14.97;82.91
64253;BME280;50592;52.958;-7.470;2022-08-19T08:46:12;100211.03;;;15.06;82.44
64253;BME280;50592;52.958;-7.470;2022-08-19T08:51:22;100203.94;;;15.13;81.36
64253;BME280;50592;52.958;-7.470;2022-08-19T08:53:50;100214.59;;;15.13;81.60
64253;BME280;50592;52.958;-7.470;2022-08-19T08:56:17;100212.88;;;15.21;81.76
64253;BME280;50592;52.958;-7.470;2022-08-19T09:01:18;100216.09;;;15.31;80.95
64253;BME280;50592;52.958;-7.470;2022-08-19T09:03:46;100221.25;;;15.33;80.80
64253;BME280;50592;52.958;-7.470;2022-08-19T09:11:22;100214.41;;;15.15;80.67
64253;BME280;50592;52.958;-7.470;2022-08-19T09:14:08;100215.31;;;15.07;80.39
64253;BME280;50592;52.958;-7.470;2022-08-19T09:16:39;100215.50;;;15.06;80.69
64253;BME280;50592;52.958;-7.470;2022-08-19T09:19:07;100221.00;;;15.04;80.79
64253;BME280;50592;52.958;-7.470;2022-08-19T09:21:33;100216.34;;;15.06;80.60
64253;BME280;50592;52.958;-7.470;2022-08-19T09:24:01;100216.91;;;15.17;80.48
64253;BME280;50592;52.958;-7.470;2022-08-19T09:26:28;100218.84;;;15.23;80.02
64253;BME280;50592;52.958;-7.470;2022-08-19T09:28:53;100221.78;;;15.28;79.44
64253;BME280;50592;52.958;-7.470;2022-08-19T09:31:22;100218.41;;;15.34;79.27
64253;BME280;50592;52.958;-7.470;2022-08-19T09:33:49;100215.75;;;15.34;78.66
64253;BME280;50592;52.958;-7.470;2022-08-19T09:36:17;100218.41;;;15.34;78.71
64253;BME280;50592;52.958;-7.470;2022-08-19T09:38:44;100217.75;;;15.32;79.14
64253;BME280;50592;52.958;-7.470;2022-08-19T09:41:13;100212.59;;;15.31;79.20
64253;BME280;50592;52.958;-7.470;2022-08-19T09:43:41;100215.44;;;15.29;79.73
64253;BME280;50592;52.958;-7.470;2022-08-19T09:46:08;100224.59;;;15.11;80.84
64253;BME280;50592;52.958;-7.470;2022-08-19T09:48:40;100214.94;;;14.95;81.73
64253;BME280;50592;52.958;-7.470;2022-08-19T09:51:09;100224.50;;;14.81;82.86
64253;BME280;50592;52.958;-7.470;2022-08-19T09:53:36;100223.34;;;14.75;83.73
64253;BME280;50592;52.958;-7.470;2022-08-19T09:56:04;100224.03;;;14.78;84.30
64253;BME280;50592;52.958;-7.470;2022-08-19T09:58:31;100225.00;;;14.76;84.77
64253;BME280;50592;52.958;-7.470;2022-08-19T10:00:58;100217.69;;;14.79;85.09
64253;BME280;50592;52.958;-7.470;2022-08-19T10:03:26;100217.34;;;14.82;85.61
64253;BME280;50592;52.958;-7.470;2022-08-19T10:05:52;100210.47;;;14.87;86.06
64253;BME280;50592;52.958;-7.470;2022-08-19T10:08:22;100207.22;;;15.00;85.75
64253;BME280;50592;52.958;-7.470;2022-08-19T10:10:49;100204.78;;;15.14;85.38
64253;BME280;50592;52.958;-7.470;2022-08-19T10:13:18;100209.94;;;15.31;84.64
64253;BME280;50592;52.958;-7.470;2022-08-19T10:15:47;100204.66;;;15.46;84.35
64253;BME280;50592;52.958;-7.470;2022-08-19T10:18:16;100199.22;;;15.69;83.42
64253;BME280;50592;52.958;-7.470;2022-08-19T10:20:49;100194.72;;;16.00;81.40
64253;BME280;50592;52.958;-7.470;2022-08-19T10:23:17;100191.66;;;16.18;78.80
64253;BME280;50592;52.958;-7.470;2022-08-19T10:25:43;100201.56;;;16.24;77.15
64253;BME280;50592;52.958;-7.470;2022-08-19T10:28:09;100191.06;;;16.23;75.74
64253;BME280;50592;52.958;-7.470;2022-08-19T10:30:40;100196.22;;;16.24;74.69
64253;BME280;50592;52.958;-7.470;2022-08-19T10:33:07;100200.38;;;16.27;74.40
64253;BME280;50592;52.958;-7.470;2022-08-19T10:35:33;100187.63;;;16.44;73.52
64253;BME280;50592;52.958;-7.470;2022-08-19T10:37:59;100192.34;;;16.64;73.15
64253;BME280;50592;52.958;-7.470;2022-08-19T10:40:27;100192.97;;;16.88;72.67
64253;BME280;50592;52.958;-7.470;2022-08-19T10:42:54;100198.09;;;17.11;71.81
64253;BME280;50592;52.958;-7.470;2022-08-19T10:45:21;100188.28;;;17.19;70.28
64253;BME280;50592;52.958;-7.470;2022-08-19T10:47:48;100189.91;;;17.13;69.44
64253;BME280;50592;52.958;-7.470;2022-08-19T10:50:14;100193.41;;;17.14;68.95
64253;BME280;50592;52.958;-7.470;2022-08-19T10:53:03;100189.94;;;17.20;68.12
64253;BME280;50592;52.958;-7.470;2022-08-19T10:55:30;100184.59;;;17.20;68.20
64253;BME280;50592;52.958;-7.470;2022-08-19T10:58:17;100174.88;;;17.12;68.01
64253;BME280;50592;52.958;-7.470;2022-08-19T11:00:57;100175.50;;;17.14;67.11
64253;BME280;50592;52.958;-7.470;2022-08-19T11:03:24;100185.91;;;17.31;67.03
64253;BME280;50592;52.958;-7.470;2022-08-19T11:06:06;100167.56;;;17.56;66.07
64253;BME280;50592;52.958;-7.470;2022-08-19T11:08:33;100168.03;;;17.73;65.74
64253;BME280;50592;52.958;-7.470;2022-08-19T11:11:01;100169.16;;;17.93;65.12
64253;BME280;50592;52.958;-7.470;2022-08-19T11:13:30;100164.88;;;18.05;64.51
64253;BME280;50592;52.958;-7.470;2022-08-19T11:16:08;100164.94;;;18.12;62.00
64253;BME280;50592;52.958;-7.470;2022-08-19T11:18:41;100157.56;;;18.28;63.22
64253;BME280;50592;52.958;-7.470;2022-08-19T11:21:22;100167.66;;;18.39;62.55
64253;BME280;50592;52.958;-7.470;2022-08-19T11:23:52;100168.88;;;18.37;62.59
64253;BME280;50592;52.958;-7.470;2022-08-19T11:26:20;100175.84;;;18.24;62.16
64253;BME280;50592;52.958;-7.470;2022-08-19T11:28:46;100177.47;;;18.12;62.12
64253;BME280;50592;52.958;-7.470;2022-08-19T11:31:16;100185.84;;;18.02;62.36
64253;BME280;50592;52.958;-7.470;2022-08-19T11:33:43;100175.72;;;17.90;62.07
64253;BME280;50592;52.958;-7.470;2022-08-19T11:36:09;100191.75;;;17.83;62.35
64253;BME280;50592;52.958;-7.470;2022-08-19T11:38:35;100190.47;;;17.79;62.34
64253;BME280;50592;52.958;-7.470;2022-08-19T11:41:07;100200.53;;;17.70;62.33
64253;BME280;50592;52.958;-7.470;2022-08-19T11:43:34;100189.38;;;17.67;62.29
64253;BME280;50592;52.958;-7.470;2022-08-19T11:46:06;100184.91;;;17.74;62.40
64253;BME280;50592;52.958;-7.470;2022-08-19T11:48:33;100181.44;;;17.80;62.47
64253;BME280;50592;52.958;-7.470;2022-08-19T11:51:06;100181.06;;;17.83;62.02
64253;BME280;50592;52.958;-7.470;2022-08-19T11:53:33;100180.00;;;17.84;61.26
64253;BME280;50592;52.958;-7.470;2022-08-19T11:55:59;100188.53;;;18.08;60.77
64253;BME280;50592;52.958;-7.470;2022-08-19T11:58:25;100186.16;;;18.34;60.23
64253;BME280;50592;52.958;-7.470;2022-08-19T12:00:51;100176.94;;;18.43;59.37
64253;BME280;50592;52.958;-7.470;2022-08-19T12:03:17;100176.28;;;18.41;58.81
64253;BME280;50592;52.958;-7.470;2022-08-19T12:05:45;100176.13;;;18.56;59.02
64253;BME280;50592;52.958;-7.470;2022-08-19T12:08:11;100175.72;;;18.66;58.75
64253;BME280;50592;52.958;-7.470;2022-08-19T12:10:39;100174.88;;;18.79;58.25
64253;BME280;50592;52.958;-7.470;2022-08-19T12:13:05;100170.56;;;18.99;57.95
64253;BME280;50592;52.958;-7.470;2022-08-19T12:15:39;100180.06;;;19.28;57.76
64253;BME280;50592;52.958;-7.470;2022-08-19T12:18:07;100171.13;;;19.48;57.20
64253;BME280;50592;52.958;-7.470;2022-08-19T12:20:35;100171.53;;;19.52;56.31
64253;BME280;50592;52.958;-7.470;2022-08-19T12:23:02;100181.19;;;19.66;56.41
64253;BME280;50592;52.958;-7.470;2022-08-19T12:25:27;100193.53;;;19.81;56.26
64253;BME280;50592;52.958;-7.470;2022-08-19T12:27:53;100189.03;;;19.68;56.29
64253;BME280;50592;52.958;-7.470;2022-08-19T12:30:20;100183.66;;;19.61;56.27
64253;BME280;50592;52.958;-7.470;2022-08-19T12:32:46;100181.63;;;19.63;55.88
64253;BME280;50592;52.958;-7.470;2022-08-19T12:35:11;100181.25;;;19.46;55.85
64253;BME280;50592;52.958;-7.470;2022-08-19T12:37:38;100189.72;;;19.23;56.09
64253;BME280;50592;52.958;-7.470;2022-08-19T12:40:07;100196.34;;;19.00;57.26
64253;BME280;50592;52.958;-7.470;2022-08-19T12:42:33;100211.56;;;18.79;57.91
64253;BME280;50592;52.958;-7.470;2022-08-19T12:45:00;100209.28;;;18.55;58.99
64253;BME280;50592;52.958;-7.470;2022-08-19T12:47:25;100212.53;;;18.44;60.29
64253;BME280;50592;52.958;-7.470;2022-08-19T12:49:52;100202.03;;;18.42;61.37
64253;BME280;50592;52.958;-7.470;2022-08-19T12:52:18;100195.91;;;18.55;61.81
64253;BME280;50592;52.958;-7.470;2022-08-19T12:54:46;100197.78;;;18.82;61.44
64253;BME280;50592;52.958;-7.470;2022-08-19T12:57:12;100200.03;;;18.92;60.77
64253;BME280;50592;52.958;-7.470;2022-08-19T12:59:38;100206.22;;;18.99;60.40